createdAt,value
2019-01-15T00:00:34.960Z,3.20
2019-01-15T00:05:29.651Z,3.16
2019-01-15T00:10:24.236Z,3.16
2019-01-15T00:15:18.799Z,3.18
2019-01-15T00:20:16.222Z,3.21
2019-01-15T00:25:11.524Z,3.23
2019-01-15T00:30:18.187Z,3.30
2019-01-15T00:35:13.452Z,3.23
2019-01-15T00:40:12.645Z,3.17
2019-01-15T00:45:10.426Z,3.28
2019-01-15T00:50:11.925Z,3.11
2019-01-15T00:55:09.166Z,2.88
2019-01-15T01:00:06.027Z,3.09
2019-01-15T01:05:00.687Z,3.02
2019-01-15T01:09:55.267Z,2.90
2019-01-15T01:14:49.905Z,2.84
2019-01-15T01:19:44.563Z,2.83
2019-01-15T01:24:39.189Z,2.81
2019-01-15T01:29:33.777Z,2.69
2019-01-15T01:34:28.387Z,2.78
2019-01-15T01:39:22.977Z,3.07
2019-01-15T01:44:17.556Z,3.12
2019-01-15T01:49:12.155Z,2.98
2019-01-15T01:54:06.864Z,2.90
2019-01-15T01:59:01.452Z,2.90
2019-01-15T02:03:56.083Z,2.95
2019-01-15T02:08:50.745Z,3.15
2019-01-15T02:13:45.330Z,3.27
2019-01-15T02:18:39.930Z,3.10
2019-01-15T02:23:34.518Z,2.95
2019-01-15T02:28:29.100Z,3.04
2019-01-15T02:33:23.669Z,3.24
2019-01-15T02:38:18.332Z,3.35
2019-01-15T02:43:13.015Z,3.26
2019-01-15T02:48:07.687Z,3.19
2019-01-15T02:53:02.262Z,3.30
2019-01-15T02:57:56.870Z,3.18
2019-01-15T03:02:51.609Z,3.18
2019-01-15T03:07:46.198Z,3.15
2019-01-15T03:12:42.493Z,3.19
2019-01-15T03:17:37.075Z,3.39
2019-01-15T03:22:31.676Z,3.27
2019-01-15T03:27:26.342Z,3.26
2019-01-15T03:32:20.925Z,3.09
2019-01-15T03:37:15.531Z,3.11
2019-01-15T03:42:10.189Z,3.23
2019-01-15T03:47:04.873Z,3.27
2019-01-15T03:51:59.485Z,3.30
2019-01-15T03:56:54.072Z,3.25
2019-01-15T04:01:48.663Z,3.25
2019-01-15T04:06:43.320Z,3.11
2019-01-15T04:11:37.907Z,2.99
2019-01-15T04:16:32.487Z,2.99
2019-01-15T04:21:27.101Z,3.02
2019-01-15T04:26:21.686Z,3.02
2019-01-15T04:31:16.280Z,3.02
2019-01-15T04:36:10.862Z,3.15
2019-01-15T04:41:05.543Z,3.19
2019-01-15T04:46:00.150Z,3.14
2019-01-15T04:50:54.746Z,2.95
2019-01-15T04:55:49.376Z,3.08
2019-01-15T05:00:43.948Z,2.97
2019-01-15T05:05:38.619Z,3.07
2019-01-15T05:10:33.203Z,3.03
2019-01-15T05:15:27.875Z,2.95
2019-01-15T05:20:22.451Z,2.91
2019-01-15T05:25:23.903Z,3.00
2019-01-15T05:30:22.649Z,3.02
2019-01-15T05:35:17.300Z,3.02
2019-01-15T05:40:15.099Z,3.09
2019-01-15T05:45:16.170Z,3.13
2019-01-15T05:50:13.133Z,3.14
2019-01-15T05:55:10.036Z,3.18
2019-01-15T06:00:16.779Z,3.21
2019-01-15T06:05:13.402Z,3.26
2019-01-15T06:10:15.847Z,3.34
2019-01-15T06:15:17.833Z,3.40
2019-01-15T06:20:19.054Z,3.53
2019-01-15T06:25:14.262Z,3.59
2019-01-15T06:30:25.669Z,3.63
2019-01-15T06:35:20.759Z,3.69
2019-01-15T06:40:21.024Z,3.91
2019-01-15T06:45:28.085Z,3.79
2019-01-15T06:50:22.808Z,3.65
2019-01-15T06:55:21.010Z,3.68
2019-01-15T07:00:20.145Z,3.69
2019-01-15T07:05:14.965Z,3.66
2019-01-15T07:10:25.957Z,3.85
2019-01-15T07:15:20.696Z,3.82
2019-01-15T07:20:17.733Z,3.81
2019-01-15T07:25:16.493Z,3.76
2019-01-15T07:30:21.605Z,3.86
2019-01-15T07:35:17.213Z,3.92
2019-01-15T07:40:14.483Z,3.98
2019-01-15T07:45:14.791Z,4.05
2019-01-15T07:50:21.900Z,4.16
2019-01-15T07:55:20.186Z,4.07
2019-01-15T08:00:21.862Z,4.15
2019-01-15T08:05:20.590Z,4.22
2019-01-15T08:10:17.989Z,4.29
2019-01-15T08:15:20.327Z,4.31
2019-01-15T08:20:16.733Z,4.38
2019-01-15T08:25:14.535Z,4.51
2019-01-15T08:30:27.694Z,4.46
2019-01-15T08:35:23.072Z,4.59
2019-01-15T08:40:19.119Z,4.70
2019-01-15T08:45:16.876Z,4.85
2019-01-15T08:50:16.167Z,4.94
2019-01-15T08:55:10.951Z,5.07
2019-01-15T09:00:09.510Z,5.22
2019-01-15T09:05:05.085Z,5.34
2019-01-15T09:10:01.932Z,5.54
2019-01-15T09:14:56.837Z,5.57
2019-01-15T09:19:52.014Z,5.57
2019-01-15T09:24:46.593Z,5.54
2019-01-15T09:29:41.876Z,5.66
2019-01-15T09:34:38.028Z,5.59
2019-01-15T09:39:44.509Z,5.63
2019-01-15T09:44:55.056Z,5.75
2019-01-15T09:49:45.962Z,5.66
2019-01-15T09:54:40.703Z,5.80
2019-01-15T09:59:35.365Z,5.96
2019-01-15T10:04:29.982Z,6.14
2019-01-15T10:09:24.740Z,6.03
2019-01-15T10:14:19.594Z,6.16
2019-01-15T10:19:15.687Z,6.42
2019-01-15T10:24:10.428Z,6.20
2019-01-15T10:29:05.183Z,6.21
2019-01-15T10:34:02.162Z,6.40
2019-01-15T10:38:56.787Z,6.68
2019-01-15T10:43:51.402Z,6.69
2019-01-15T10:48:45.993Z,6.76
2019-01-15T10:53:40.651Z,6.72
2019-01-15T10:58:38.709Z,7.13
2019-01-15T11:03:33.316Z,7.12
2019-01-15T11:08:28.063Z,7.14
2019-01-15T11:13:22.700Z,7.03
2019-01-15T11:18:17.357Z,6.83
2019-01-15T11:23:11.955Z,6.77
2019-01-15T11:28:06.764Z,6.77
2019-01-15T11:33:01.356Z,6.75
2019-01-15T11:37:56.007Z,6.47
2019-01-15T11:42:50.954Z,6.64
2019-01-15T11:47:45.813Z,6.53
2019-01-15T11:52:40.479Z,6.71
2019-01-15T11:57:35.109Z,6.81
2019-01-15T12:02:33.204Z,6.72
2019-01-15T12:07:29.510Z,6.68
2019-01-15T12:12:43.327Z,6.49
2019-01-15T12:17:39.549Z,6.54
2019-01-15T12:22:50.761Z,7.08
2019-01-15T12:27:52.595Z,7.26
2019-01-15T12:32:51.224Z,7.38
2019-01-15T12:37:56.262Z,7.17
2019-01-15T12:43:11.064Z,7.66
2019-01-15T12:48:16.779Z,7.34
2019-01-15T12:53:22.207Z,7.74
2019-01-15T12:58:33.437Z,7.89
2019-01-15T13:03:38.147Z,8.08
2019-01-15T13:08:38.712Z,8.01
2019-01-15T13:13:44.499Z,7.55
2019-01-15T13:18:42.785Z,7.85
2019-01-15T13:23:47.866Z,7.92
2019-01-15T13:28:48.639Z,7.79
2019-01-15T13:33:57.503Z,7.81
2019-01-15T13:38:54.927Z,7.66
2019-01-15T13:43:57.449Z,8.01
2019-01-15T13:49:18.317Z,8.00
2019-01-15T13:54:37.651Z,7.92
2019-01-15T13:59:51.435Z,7.89
2019-01-15T14:05:03.888Z,7.70
2019-01-15T14:10:02.971Z,7.62
2019-01-15T14:15:01.069Z,7.65
2019-01-15T14:20:06.554Z,7.53
2019-01-15T14:25:06.215Z,7.43
2019-01-15T14:30:08.827Z,7.39
2019-01-15T14:35:08.565Z,7.00
2019-01-15T14:40:08.758Z,6.87
2019-01-15T14:45:21.412Z,6.69
2019-01-15T14:50:18.162Z,6.68
2019-01-15T14:55:23.755Z,6.58
2019-01-15T15:00:31.460Z,6.49
2019-01-15T15:05:33.900Z,6.45
2019-01-15T15:10:42.963Z,6.45
2019-01-15T15:15:39.228Z,6.36
2019-01-15T15:20:35.465Z,6.11
2019-01-15T15:25:34.550Z,6.06
2019-01-15T15:30:39.798Z,5.93
2019-01-15T15:35:36.630Z,5.79
2019-01-15T15:40:33.624Z,5.67
2019-01-15T15:45:36.012Z,5.63
2019-01-15T15:50:52.513Z,5.52
2019-01-15T15:55:54.310Z,5.38
2019-01-15T16:00:59.512Z,5.21
2019-01-15T16:06:02.658Z,5.12
2019-01-15T16:11:15.111Z,4.98
2019-01-15T16:16:18.606Z,4.86
2019-01-15T16:21:11.197Z,4.76
2019-01-15T16:26:05.687Z,4.70
2019-01-15T16:31:07.813Z,4.67
2019-01-15T16:36:18.396Z,4.60
2019-01-15T16:41:12.836Z,4.47
2019-01-15T16:46:09.236Z,4.43
2019-01-15T16:51:08.188Z,4.43
2019-01-15T16:56:05.184Z,4.47
2019-01-15T17:01:07.326Z,4.28
2019-01-15T17:06:16.558Z,4.24
2019-01-15T17:11:12.799Z,4.21
2019-01-15T17:16:25.364Z,4.16
2019-01-15T17:21:33.532Z,4.05
2019-01-15T17:26:32.498Z,4.02
2019-01-15T17:31:34.423Z,3.98
2019-01-15T17:36:36.549Z,3.88
2019-01-15T17:41:41.626Z,3.80
2019-01-15T17:46:40.910Z,3.70
2019-01-15T17:51:39.788Z,3.65
2019-01-15T17:56:38.808Z,3.62
2019-01-15T18:01:35.056Z,3.64
2019-01-15T18:06:39.826Z,3.59
2019-01-15T18:11:52.069Z,3.52
2019-01-15T18:16:54.013Z,3.49
2019-01-15T18:22:04.967Z,3.46
2019-01-15T18:27:01.187Z,3.42
2019-01-15T18:32:04.247Z,3.45
2019-01-15T18:37:16.318Z,3.39
2019-01-15T18:42:28.427Z,3.32
2019-01-15T18:47:22.774Z,3.24
2019-01-15T18:52:23.206Z,3.19
2019-01-15T18:57:19.440Z,3.16
2019-01-15T19:02:19.306Z,3.05
2019-01-15T19:07:21.326Z,3.01
2019-01-15T19:12:33.665Z,2.97
2019-01-15T19:17:46.258Z,2.92
2019-01-15T19:22:54.444Z,2.87
2019-01-15T19:27:50.820Z,2.82
2019-01-15T19:33:02.792Z,2.70
2019-01-15T19:37:59.042Z,2.65
2019-01-15T19:42:55.269Z,2.65
2019-01-15T19:47:49.644Z,2.62
2019-01-15T19:52:52.017Z,2.60
2019-01-15T19:57:48.296Z,2.55
2019-01-15T20:02:44.538Z,2.56
2019-01-15T20:07:49.479Z,2.54
2019-01-15T20:12:57.904Z,2.41
2019-01-15T20:17:54.164Z,2.37
2019-01-15T20:22:57.611Z,2.33
2019-01-15T20:27:53.853Z,2.30
2019-01-15T20:32:52.941Z,2.24
2019-01-15T20:37:49.256Z,2.15
2019-01-15T20:42:45.533Z,2.11
2019-01-15T20:47:56.328Z,2.10
2019-01-15T20:53:09.015Z,2.06
2019-01-15T20:58:23.221Z,2.02
2019-01-15T21:03:20.433Z,2.01
2019-01-15T21:08:32.727Z,2.01
2019-01-15T21:13:45.120Z,2.06
2019-01-15T21:18:57.623Z,2.06
2019-01-15T21:24:02.663Z,1.99
2019-01-15T21:29:11.304Z,1.97
2019-01-15T21:34:23.607Z,1.98
2019-01-15T21:39:19.901Z,2.04
2019-01-15T21:44:24.904Z,2.09
2019-01-15T21:49:24.934Z,1.96
2019-01-15T21:54:21.267Z,1.82
2019-01-15T21:59:20.309Z,1.66
2019-01-15T22:04:31.126Z,1.57
2019-01-15T22:09:43.813Z,1.52
2019-01-15T22:14:41.179Z,1.56
2019-01-15T22:19:53.238Z,1.54
2019-01-15T22:24:56.724Z,1.43
2019-01-15T22:29:52.960Z,1.43
2019-01-15T22:34:53.092Z,1.43
2019-01-15T22:40:05.692Z,1.48
2019-01-15T22:45:18.006Z,1.25
2019-01-15T22:50:12.499Z,1.07
2019-01-15T22:55:28.029Z,0.87
2019-01-15T23:00:43.061Z,0.85
2019-01-15T23:05:48.240Z,0.85
2019-01-15T23:10:47.489Z,0.84
2019-01-15T23:15:52.910Z,0.87
2019-01-15T23:21:04.926Z,0.83
2019-01-15T23:26:01.755Z,0.80
2019-01-15T23:31:00.647Z,0.78
2019-01-15T23:36:06.869Z,0.81
2019-01-15T23:41:19.546Z,0.71
2019-01-15T23:46:18.519Z,0.62
2019-01-15T23:51:17.733Z,0.58
2019-01-15T23:56:30.007Z,0.56
